sensor_id;sensor_type;location;lat;lon;timestamp;temperature;humidity
27306;DHT22;14792;50.886;6.468;2022-12-07T00:00:45;4.60;99.90
27306;DHT22;14792;50.886;6.468;2022-12-07T00:03:47;4.60;99.90
27306;DHT22;14792;50.886;6.468;2022-12-07T00:06:50;4.50;99.90
27306;DHT22;14792;50.886;6.468;2022-12-07T00:09:50;4.60;99.90
27306;DHT22;14792;50.886;6.468;2022-12-07T00:12:51;4.60;99.90
27306;DHT22;14792;50.886;6.468;2022-12-07T00:15:53;4.60;99.90
27306;DHT22;14792;50.886;6.468;2022-12-07T00:18:55;4.60;99.90
27306;DHT22;14792;50.886;6.468;2022-12-07T00:21:56;4.60;99.90
27306;DHT22;14792;50.886;6.468;2022-12-07T00:25:03;4.50;99.90
27306;DHT22;14792;50.886;6.468;2022-12-07T00:28:04;4.50;99.90
27306;DHT22;14792;50.886;6.468;2022-12-07T00:31:10;4.50;99.90
27306;DHT22;14792;50.886;6.468;2022-12-07T00:34:11;4.50;99.90
27306;DHT22;14792;50.886;6.468;2022-12-07T00:37:09;4.50;99.90
27306;DHT22;14792;50.886;6.468;2022-12-07T00:40:11;4.50;99.90
27306;DHT22;14792;50.886;6.468;2022-12-07T00:43:12;4.40;99.90
27306;DHT22;14792;50.886;6.468;2022-12-07T00:46:14;4.40;99.90
27306;DHT22;14792;50.886;6.468;2022-12-07T00:49:15;4.40;99.90
27306;DHT22;14792;50.886;6.468;2022-12-07T00:52:17;4.40;99.90
27306;DHT22;14792;50.886;6.468;2022-12-07T00:55:19;4.50;99.90
27306;DHT22;14792;50.886;6.468;2022-12-07T00:58:20;4.50;99.90
27306;DHT22;14792;50.886;6.468;2022-12-07T01:01:22;4.50;99.90
27306;DHT22;14792;50.886;6.468;2022-12-07T01:04:23;4.50;99.90
27306;DHT22;14792;50.886;6.468;2022-12-07T01:07:25;4.50;99.90
27306;DHT22;14792;50.886;6.468;2022-12-07T01:10:27;4.50;99.90
27306;DHT22;14792;50.886;6.468;2022-12-07T01:13:28;4.60;99.90
27306;DHT22;14792;50.886;6.468;2022-12-07T01:16:30;4.60;99.90
27306;DHT22;14792;50.886;6.468;2022-12-07T01:19:31;4.60;99.90
27306;DHT22;14792;50.886;6.468;2022-12-07T01:22:42;4.60;99.90
27306;DHT22;14792;50.886;6.468;2022-12-07T01:25:40;4.60;99.90
27306;DHT22;14792;50.886;6.468;2022-12-07T01:28:42;4.60;99.90
27306;DHT22;14792;50.886;6.468;2022-12-07T01:31:43;4.60;99.90
27306;DHT22;14792;50.886;6.468;2022-12-07T01:34:47;4.60;99.90
27306;DHT22;14792;50.886;6.468;2022-12-07T01:37:47;4.60;99.90
27306;DHT22;14792;50.886;6.468;2022-12-07T01:40:53;4.60;99.90
27306;DHT22;14792;50.886;6.468;2022-12-07T01:47:12;4.70;99.90
27306;DHT22;14792;50.886;6.468;2022-12-07T01:50:14;4.70;99.90
27306;DHT22;14792;50.886;6.468;2022-12-07T01:53:15;4.70;99.90
27306;DHT22;14792;50.886;6.468;2022-12-07T01:56:18;4.70;99.90
27306;DHT22;14792;50.886;6.468;2022-12-07T01:59:19;4.70;99.90
27306;DHT22;14792;50.886;6.468;2022-12-07T02:02:27;4.70;99.90
27306;DHT22;14792;50.886;6.468;2022-12-07T02:05:29;4.80;99.90
27306;DHT22;14792;50.886;6.468;2022-12-07T02:08:31;4.70;99.90
27306;DHT22;14792;50.886;6.468;2022-12-07T02:11:32;4.80;99.90
27306;DHT22;14792;50.886;6.468;2022-12-07T02:14:34;4.80;99.90
27306;DHT22;14792;50.886;6.468;2022-12-07T02:17:48;4.80;99.90
27306;DHT22;14792;50.886;6.468;2022-12-07T02:20:57;4.80;99.90
27306;DHT22;14792;50.886;6.468;2022-12-07T02:30:45;4.80;99.90
27306;DHT22;14792;50.886;6.468;2022-12-07T02:34:02;4.80;99.90
27306;DHT22;14792;50.886;6.468;2022-12-07T02:37:01;4.80;99.90
27306;DHT22;14792;50.886;6.468;2022-12-07T02:40:09;4.80;99.90
27306;DHT22;14792;50.886;6.468;2022-12-07T02:43:10;4.80;99.90
27306;DHT22;14792;50.886;6.468;2022-12-07T02:46:10;4.80;99.90
27306;DHT22;14792;50.886;6.468;2022-12-07T02:49:11;4.80;99.90
27306;DHT22;14792;50.886;6.468;2022-12-07T02:52:13;4.80;99.90
27306;DHT22;14792;50.886;6.468;2022-12-07T02:55:15;4.70;99.90
27306;DHT22;14792;50.886;6.468;2022-12-07T02:58:33;4.70;99.90
27306;DHT22;14792;50.886;6.468;2022-12-07T03:01:45;4.70;99.90
27306;DHT22;14792;50.886;6.468;2022-12-07T03:08:25;4.70;99.90
27306;DHT22;14792;50.886;6.468;2022-12-07T03:11:25;4.70;99.90
27306;DHT22;14792;50.886;6.468;2022-12-07T03:14:32;4.70;99.90
27306;DHT22;14792;50.886;6.468;2022-12-07T03:17:30;4.70;99.90
27306;DHT22;14792;50.886;6.468;2022-12-07T03:20:32;4.70;99.90
27306;DHT22;14792;50.886;6.468;2022-12-07T03:23:33;4.70;99.90
27306;DHT22;14792;50.886;6.468;2022-12-07T03:26:36;4.70;99.90
27306;DHT22;14792;50.886;6.468;2022-12-07T03:29:49;4.70;99.90
27306;DHT22;14792;50.886;6.468;2022-12-07T03:33:04;4.70;99.90
27306;DHT22;14792;50.886;6.468;2022-12-07T03:36:08;4.70;99.90
27306;DHT22;14792;50.886;6.468;2022-12-07T03:39:14;4.70;99.90
27306;DHT22;14792;50.886;6.468;2022-12-07T03:42:13;4.70;99.90
27306;DHT22;14792;50.886;6.468;2022-12-07T03:45:15;4.70;99.90
27306;DHT22;14792;50.886;6.468;2022-12-07T03:48:28;4.70;99.90
27306;DHT22;14792;50.886;6.468;2022-12-07T03:51:51;4.70;99.90
27306;DHT22;14792;50.886;6.468;2022-12-07T03:55:06;4.70;99.90
27306;DHT22;14792;50.886;6.468;2022-12-07T03:58:07;4.70;99.90
27306;DHT22;14792;50.886;6.468;2022-12-07T04:01:08;4.70;99.90
27306;DHT22;14792;50.886;6.468;2022-12-07T04:04:09;4.60;99.90
27306;DHT22;14792;50.886;6.468;2022-12-07T04:07:11;4.70;99.90
27306;DHT22;14792;50.886;6.468;2022-12-07T04:10:12;4.60;99.90
27306;DHT22;14792;50.886;6.468;2022-12-07T04:13:14;4.60;99.90
27306;DHT22;14792;50.886;6.468;2022-12-07T04:16:16;4.50;99.90
27306;DHT22;14792;50.886;6.468;2022-12-07T04:19:19;4.40;99.90
27306;DHT22;14792;50.886;6.468;2022-12-07T04:22:19;4.40;99.90
27306;DHT22;14792;50.886;6.468;2022-12-07T04:25:20;4.40;99.90
27306;DHT22;14792;50.886;6.468;2022-12-07T04:28:22;4.40;99.90
27306;DHT22;14792;50.886;6.468;2022-12-07T04:31:23;4.40;99.90
27306;DHT22;14792;50.886;6.468;2022-12-07T04:34:25;4.30;99.90
27306;DHT22;14792;50.886;6.468;2022-12-07T04:37:27;4.30;99.90
27306;DHT22;14792;50.886;6.468;2022-12-07T04:40:33;4.30;99.90
27306;DHT22;14792;50.886;6.468;2022-12-07T04:43:34;4.30;99.90
27306;DHT22;14792;50.886;6.468;2022-12-07T04:46:36;4.30;99.90
27306;DHT22;14792;50.886;6.468;2022-12-07T04:49:37;4.30;99.90
27306;DHT22;14792;50.886;6.468;2022-12-07T04:52:39;4.30;99.90
27306;DHT22;14792;50.886;6.468;2022-12-07T04:55:40;4.20;99.90
27306;DHT22;14792;50.886;6.468;2022-12-07T04:58:42;4.20;99.90
27306;DHT22;14792;50.886;6.468;2022-12-07T05:01:44;4.20;99.90
27306;DHT22;14792;50.886;6.468;2022-12-07T05:04:45;4.10;99.90
27306;DHT22;14792;50.886;6.468;2022-12-07T05:07:47;4.10;99.90
27306;DHT22;14792;50.886;6.468;2022-12-07T05:10:49;4.00;99.90
27306;DHT22;14792;50.886;6.468;2022-12-07T05:13:50;4.00;99.90
27306;DHT22;14792;50.886;6.468;2022-12-07T05:16:52;4.00;99.90
27306;DHT22;14792;50.886;6.468;2022-12-07T05:19:53;4.00;99.90
27306;DHT22;14792;50.886;6.468;2022-12-07T05:22:55;4.00;99.90
27306;DHT22;14792;50.886;6.468;2022-12-07T05:25:56;4.00;99.90
27306;DHT22;14792;50.886;6.468;2022-12-07T05:29:03;4.00;99.90
27306;DHT22;14792;50.886;6.468;2022-12-07T05:32:04;4.00;99.90
27306;DHT22;14792;50.886;6.468;2022-12-07T05:35:06;4.00;99.90
27306;DHT22;14792;50.886;6.468;2022-12-07T05:38:07;4.10;99.90
27306;DHT22;14792;50.886;6.468;2022-12-07T05:41:09;4.00;99.90
27306;DHT22;14792;50.886;6.468;2022-12-07T05:44:11;4.10;99.90
27306;DHT22;14792;50.886;6.468;2022-12-07T05:47:13;4.10;99.90
27306;DHT22;14792;50.886;6.468;2022-12-07T05:50:14;4.10;99.90
27306;DHT22;14792;50.886;6.468;2022-12-07T05:53:16;4.10;99.90
27306;DHT22;14792;50.886;6.468;2022-12-07T05:56:17;4.20;99.90
27306;DHT22;14792;50.886;6.468;2022-12-07T05:59:19;4.20;99.90
27306;DHT22;14792;50.886;6.468;2022-12-07T06:02:26;4.20;99.90
27306;DHT22;14792;50.886;6.468;2022-12-07T06:05:28;4.20;99.90
27306;DHT22;14792;50.886;6.468;2022-12-07T06:08:29;4.20;99.90
27306;DHT22;14792;50.886;6.468;2022-12-07T06:11:32;4.20;99.90
27306;DHT22;14792;50.886;6.468;2022-12-07T06:14:52;4.20;99.90
27306;DHT22;14792;50.886;6.468;2022-12-07T06:17:53;4.20;99.90
27306;DHT22;14792;50.886;6.468;2022-12-07T06:20:55;4.20;99.90
27306;DHT22;14792;50.886;6.468;2022-12-07T06:23:57;4.20;99.90
27306;DHT22;14792;50.886;6.468;2022-12-07T06:26:59;4.20;99.90
27306;DHT22;14792;50.886;6.468;2022-12-07T06:30:01;4.20;99.90
27306;DHT22;14792;50.886;6.468;2022-12-07T06:33:02;4.20;99.90
27306;DHT22;14792;50.886;6.468;2022-12-07T06:36:04;4.20;99.90
27306;DHT22;14792;50.886;6.468;2022-12-07T06:39:06;4.20;99.90
27306;DHT22;14792;50.886;6.468;2022-12-07T06:42:07;4.20;99.90
27306;DHT22;14792;50.886;6.468;2022-12-07T06:45:09;4.20;99.90
27306;DHT22;14792;50.886;6.468;2022-12-07T06:48:10;4.20;99.90
27306;DHT22;14792;50.886;6.468;2022-12-07T06:51:12;4.20;99.90
27306;DHT22;14792;50.886;6.468;2022-12-07T06:54:14;4.20;99.90
27306;DHT22;14792;50.886;6.468;2022-12-07T06:57:15;4.10;99.90
27306;DHT22;14792;50.886;6.468;2022-12-07T07:00:17;4.10;99.90
27306;DHT22;14792;50.886;6.468;2022-12-07T07:03:18;4.10;99.90
27306;DHT22;14792;50.886;6.468;2022-12-07T07:06:20;4.10;99.90
27306;DHT22;14792;50.886;6.468;2022-12-07T07:09:22;4.10;99.90
27306;DHT22;14792;50.886;6.468;2022-12-07T07:12:23;4.00;99.90
27306;DHT22;14792;50.886;6.468;2022-12-07T07:15:25;4.00;99.90
27306;DHT22;14792;50.886;6.468;2022-12-07T07:18:26;4.00;99.90
27306;DHT22;14792;50.886;6.468;2022-12-07T07:21:28;4.00;99.90
27306;DHT22;14792;50.886;6.468;2022-12-07T07:24:30;4.00;99.90
27306;DHT22;14792;50.886;6.468;2022-12-07T07:27:31;4.00;99.90
27306;DHT22;14792;50.886;6.468;2022-12-07T07:30:33;3.90;99.90
27306;DHT22;14792;50.886;6.468;2022-12-07T07:33:34;4.00;99.90
27306;DHT22;14792;50.886;6.468;2022-12-07T07:36:36;4.00;99.90
27306;DHT22;14792;50.886;6.468;2022-12-07T07:39:38;4.10;99.90
27306;DHT22;14792;50.886;6.468;2022-12-07T07:42:39;4.00;99.90
27306;DHT22;14792;50.886;6.468;2022-12-07T07:45:41;4.00;99.90
27306;DHT22;14792;50.886;6.468;2022-12-07T07:48:42;4.00;99.90
27306;DHT22;14792;50.886;6.468;2022-12-07T07:51:44;4.00;99.90
27306;DHT22;14792;50.886;6.468;2022-12-07T07:54:46;3.90;99.90
27306;DHT22;14792;50.886;6.468;2022-12-07T07:57:47;4.00;99.90
27306;DHT22;14792;50.886;6.468;2022-12-07T08:00:49;4.00;99.90
27306;DHT22;14792;50.886;6.468;2022-12-07T08:03:50;4.00;99.90
27306;DHT22;14792;50.886;6.468;2022-12-07T08:06:52;4.10;99.90
27306;DHT22;14792;50.886;6.468;2022-12-07T08:09:54;4.10;99.90
27306;DHT22;14792;50.886;6.468;2022-12-07T08:12:55;4.20;99.90
27306;DHT22;14792;50.886;6.468;2022-12-07T08:16:12;4.20;99.90
27306;DHT22;14792;50.886;6.468;2022-12-07T08:19:13;4.30;99.90
27306;DHT22;14792;50.886;6.468;2022-12-07T08:22:15;4.30;99.90
27306;DHT22;14792;50.886;6.468;2022-12-07T08:25:17;4.40;99.90
27306;DHT22;14792;50.886;6.468;2022-12-07T08:28:19;4.40;99.90
27306;DHT22;14792;50.886;6.468;2022-12-07T08:31:21;4.40;99.90
27306;DHT22;14792;50.886;6.468;2022-12-07T08:34:22;4.50;99.90
27306;DHT22;14792;50.886;6.468;2022-12-07T08:37:24;4.60;99.90
27306;DHT22;14792;50.886;6.468;2022-12-07T08:40:25;4.70;99.90
27306;DHT22;14792;50.886;6.468;2022-12-07T08:43:27;4.80;99.90
27306;DHT22;14792;50.886;6.468;2022-12-07T08:46:39;4.80;99.90
27306;DHT22;14792;50.886;6.468;2022-12-07T08:49:35;4.70;99.90
27306;DHT22;14792;50.886;6.468;2022-12-07T08:52:35;4.90;99.90
27306;DHT22;14792;50.886;6.468;2022-12-07T08:55:36;5.10;99.90
27306;DHT22;14792;50.886;6.468;2022-12-07T08:58:38;5.20;99.90
27306;DHT22;14792;50.886;6.468;2022-12-07T09:01:39;5.40;99.90
27306;DHT22;14792;50.886;6.468;2022-12-07T09:04:41;5.30;99.90
27306;DHT22;14792;50.886;6.468;2022-12-07T09:07:46;5.20;99.90
27306;DHT22;14792;50.886;6.468;2022-12-07T09:10:47;5.20;99.90
27306;DHT22;14792;50.886;6.468;2022-12-07T09:13:50;5.10;99.90
27306;DHT22;14792;50.886;6.468;2022-12-07T09:16:51;5.30;99.90
27306;DHT22;14792;50.886;6.468;2022-12-07T09:19:53;5.40;99.90
27306;DHT22;14792;50.886;6.468;2022-12-07T09:22:54;5.40;99.90
27306;DHT22;14792;50.886;6.468;2022-12-07T09:25:59;5.50;99.90
27306;DHT22;14792;50.886;6.468;2022-12-07T09:29:02;5.60;99.90
27306;DHT22;14792;50.886;6.468;2022-12-07T09:32:02;5.70;99.90
27306;DHT22;14792;50.886;6.468;2022-12-07T09:35:03;5.80;99.90
27306;DHT22;14792;50.886;6.468;2022-12-07T09:38:05;6.00;99.90
27306;DHT22;14792;50.886;6.468;2022-12-07T09:41:07;6.00;99.90
27306;DHT22;14792;50.886;6.468;2022-12-07T09:44:18;6.10;99.90
27306;DHT22;14792;50.886;6.468;2022-12-07T09:47:13;6.10;99.90
27306;DHT22;14792;50.886;6.468;2022-12-07T09:50:25;5.90;99.90
27306;DHT22;14792;50.886;6.468;2022-12-07T09:53:30;5.90;99.90
27306;DHT22;14792;50.886;6.468;2022-12-07T09:56:28;6.10;99.90
27306;DHT22;14792;50.886;6.468;2022-12-07T09:59:29;6.30;99.90
27306;DHT22;14792;50.886;6.468;2022-12-07T10:05:35;6.40;99.90
27306;DHT22;14792;50.886;6.468;2022-12-07T10:08:36;6.40;99.90
27306;DHT22;14792;50.886;6.468;2022-12-07T10:15:04;6.10;99.90
27306;DHT22;14792;50.886;6.468;2022-12-07T10:18:14;6.10;99.90
27306;DHT22;14792;50.886;6.468;2022-12-07T10:21:14;6.10;99.90
27306;DHT22;14792;50.886;6.468;2022-12-07T10:24:14;6.20;99.90
27306;DHT22;14792;50.886;6.468;2022-12-07T10:27:25;6.30;99.90
27306;DHT22;14792;50.886;6.468;2022-12-07T10:30:23;6.20;99.90
27306;DHT22;14792;50.886;6.468;2022-12-07T10:33:35;6.00;99.90
27306;DHT22;14792;50.886;6.468;2022-12-07T10:39:53;5.90;99.90
27306;DHT22;14792;50.886;6.468;2022-12-07T10:42:38;6.10;99.90
27306;DHT22;14792;50.886;6.468;2022-12-07T10:46:05;6.20;99.90
27306;DHT22;14792;50.886;6.468;2022-12-07T10:49:04;6.10;99.90
27306;DHT22;14792;50.886;6.468;2022-12-07T11:05:52;6.00;99.90
27306;DHT22;14792;50.886;6.468;2022-12-07T11:12:41;5.90;99.90
27306;DHT22;14792;50.886;6.468;2022-12-07T11:16:07;5.80;99.90
27306;DHT22;14792;50.886;6.468;2022-12-07T11:19:20;6.00;99.90
27306;DHT22;14792;50.886;6.468;2022-12-07T11:22:28;5.90;99.90
27306;DHT22;14792;50.886;6.468;2022-12-07T11:25:39;5.90;99.90
27306;DHT22;14792;50.886;6.468;2022-12-07T11:31:56;5.90;99.90
27306;DHT22;14792;50.886;6.468;2022-12-07T11:38:43;6.10;99.90
27306;DHT22;14792;50.886;6.468;2022-12-07T11:41:43;6.40;99.90
27306;DHT22;14792;50.886;6.468;2022-12-07T11:48:01;6.20;99.90
27306;DHT22;14792;50.886;6.468;2022-12-07T11:51:02;6.30;99.90
27306;DHT22;14792;50.886;6.468;2022-12-07T11:54:16;6.30;99.90
27306;DHT22;14792;50.886;6.468;2022-12-07T11:57:19;6.20;99.90
27306;DHT22;14792;50.886;6.468;2022-12-07T12:00:19;6.20;99.90
27306;DHT22;14792;50.886;6.468;2022-12-07T12:03:23;6.20;99.90
27306;DHT22;14792;50.886;6.468;2022-12-07T12:06:22;6.30;99.90
27306;DHT22;14792;50.886;6.468;2022-12-07T12:09:34;6.30;99.90
27306;DHT22;14792;50.886;6.468;2022-12-07T12:19:17;6.10;99.90
27306;DHT22;14792;50.886;6.468;2022-12-07T12:22:17;6.10;99.90
27306;DHT22;14792;50.886;6.468;2022-12-07T12:25:20;6.10;99.90
27306;DHT22;14792;50.886;6.468;2022-12-07T12:28:21;6.10;99.90
27306;DHT22;14792;50.886;6.468;2022-12-07T12:37:49;6.30;99.90
27306;DHT22;14792;50.886;6.468;2022-12-07T12:40:50;6.40;99.90
27306;DHT22;14792;50.886;6.468;2022-12-07T12:43:52;6.50;99.90
27306;DHT22;14792;50.886;6.468;2022-12-07T12:46:56;6.40;99.90
27306;DHT22;14792;50.886;6.468;2022-12-07T12:50:20;6.40;99.90
27306;DHT22;14792;50.886;6.468;2022-12-07T12:53:23;6.30;99.90
27306;DHT22;14792;50.886;6.468;2022-12-07T12:56:30;6.40;99.90
27306;DHT22;14792;50.886;6.468;2022-12-07T12:59:29;6.30;99.90
27306;DHT22;14792;50.886;6.468;2022-12-07T13:02:30;6.30;99.90
27306;DHT22;14792;50.886;6.468;2022-12-07T13:05:31;6.30;99.90
27306;DHT22;14792;50.886;6.468;2022-12-07T13:08:33;6.40;99.90
27306;DHT22;14792;50.886;6.468;2022-12-07T13:11:35;6.40;99.90
27306;DHT22;14792;50.886;6.468;2022-12-07T13:14:43;6.40;99.90
27306;DHT22;14792;50.886;6.468;2022-12-07T13:23:56;6.40;99.90
27306;DHT22;14792;50.886;6.468;2022-12-07T13:26:57;6.50;99.90
27306;DHT22;14792;50.886;6.468;2022-12-07T13:29:58;6.40;99.90
27306;DHT22;14792;50.886;6.468;2022-12-07T13:33:00;6.50;99.90
27306;DHT22;14792;50.886;6.468;2022-12-07T13:36:01;6.40;99.90
27306;DHT22;14792;50.886;6.468;2022-12-07T13:45:28;6.30;99.90
27306;DHT22;14792;50.886;6.468;2022-12-07T13:48:30;6.30;99.90
27306;DHT22;14792;50.886;6.468;2022-12-07T13:51:33;6.20;99.90
27306;DHT22;14792;50.886;6.468;2022-12-07T13:54:31;6.20;99.90
27306;DHT22;14792;50.886;6.468;2022-12-07T13:57:33;6.10;99.90
27306;DHT22;14792;50.886;6.468;2022-12-07T14:00:37;6.10;99.90
27306;DHT22;14792;50.886;6.468;2022-12-07T14:03:39;6.10;99.90
27306;DHT22;14792;50.886;6.468;2022-12-07T14:06:47;6.10;99.90
27306;DHT22;14792;50.886;6.468;2022-12-07T14:09:42;6.20;99.90
27306;DHT22;14792;50.886;6.468;2022-12-07T14:12:43;6.10;99.90
27306;DHT22;14792;50.886;6.468;2022-12-07T14:15:49;6.10;99.90
27306;DHT22;14792;50.886;6.468;2022-12-07T14:18:47;6.10;99.90
27306;DHT22;14792;50.886;6.468;2022-12-07T14:21:48;6.10;99.90
27306;DHT22;14792;50.886;6.468;2022-12-07T14:24:50;6.00;99.90
27306;DHT22;14792;50.886;6.468;2022-12-07T14:27:59;6.00;99.90
27306;DHT22;14792;50.886;6.468;2022-12-07T14:31:00;5.90;99.90
27306;DHT22;14792;50.886;6.468;2022-12-07T14:34:01;5.90;99.90
27306;DHT22;14792;50.886;6.468;2022-12-07T14:37:03;5.90;99.90
27306;DHT22;14792;50.886;6.468;2022-12-07T14:40:04;5.80;99.90
27306;DHT22;14792;50.886;6.468;2022-12-07T14:43:09;5.80;99.90
27306;DHT22;14792;50.886;6.468;2022-12-07T14:46:08;5.80;99.90
27306;DHT22;14792;50.886;6.468;2022-12-07T14:49:09;5.80;99.90
27306;DHT22;14792;50.886;6.468;2022-12-07T14:52:17;5.80;99.90
27306;DHT22;14792;50.886;6.468;2022-12-07T14:55:25;5.80;99.90
27306;DHT22;14792;50.886;6.468;2022-12-07T14:58:25;5.80;99.90
27306;DHT22;14792;50.886;6.468;2022-12-07T15:01:26;5.80;99.90
27306;DHT22;14792;50.886;6.468;2022-12-07T15:04:28;5.70;99.90
27306;DHT22;14792;50.886;6.468;2022-12-07T15:07:30;5.70;99.90
27306;DHT22;14792;50.886;6.468;2022-12-07T15:10:32;5.70;99.90
27306;DHT22;14792;50.886;6.468;2022-12-07T15:13:33;5.70;99.90
27306;DHT22;14792;50.886;6.468;2022-12-07T15:16:52;5.70;99.90
27306;DHT22;14792;50.886;6.468;2022-12-07T15:19:54;5.60;99.90
27306;DHT22;14792;50.886;6.468;2022-12-07T15:22:55;5.50;99.90
27306;DHT22;14792;50.886;6.468;2022-12-07T15:25:57;5.50;99.90
27306;DHT22;14792;50.886;6.468;2022-12-07T15:28:59;5.50;99.90
27306;DHT22;14792;50.886;6.468;2022-12-07T15:32:00;5.50;99.90
27306;DHT22;14792;50.886;6.468;2022-12-07T15:35:02;5.40;99.90
27306;DHT22;14792;50.886;6.468;2022-12-07T15:38:03;5.40;99.90
27306;DHT22;14792;50.886;6.468;2022-12-07T15:41:05;5.40;99.90
27306;DHT22;14792;50.886;6.468;2022-12-07T15:44:08;5.30;99.90
27306;DHT22;14792;50.886;6.468;2022-12-07T15:47:14;5.30;99.90
27306;DHT22;14792;50.886;6.468;2022-12-07T15:50:16;5.30;99.90
27306;DHT22;14792;50.886;6.468;2022-12-07T15:53:17;5.30;99.90
27306;DHT22;14792;50.886;6.468;2022-12-07T15:56:20;5.30;99.90
27306;DHT22;14792;50.886;6.468;2022-12-07T15:59:21;5.20;99.90
27306;DHT22;14792;50.886;6.468;2022-12-07T16:02:23;5.30;99.90
27306;DHT22;14792;50.886;6.468;2022-12-07T16:05:24;5.30;99.90
27306;DHT22;14792;50.886;6.468;2022-12-07T16:08:26;5.20;99.90
27306;DHT22;14792;50.886;6.468;2022-12-07T16:11:27;5.10;99.90
27306;DHT22;14792;50.886;6.468;2022-12-07T16:14:29;5.10;99.90
27306;DHT22;14792;50.886;6.468;2022-12-07T16:17:31;5.00;99.90
27306;DHT22;14792;50.886;6.468;2022-12-07T16:20:32;4.90;99.90
27306;DHT22;14792;50.886;6.468;2022-12-07T16:23:34;4.80;99.90
27306;DHT22;14792;50.886;6.468;2022-12-07T16:26:35;4.70;99.90
27306;DHT22;14792;50.886;6.468;2022-12-07T16:29:37;4.70;99.90
27306;DHT22;14792;50.886;6.468;2022-12-07T16:32:39;4.60;99.90
27306;DHT22;14792;50.886;6.468;2022-12-07T16:35:40;4.50;99.90
27306;DHT22;14792;50.886;6.468;2022-12-07T16:38:42;4.50;99.90
27306;DHT22;14792;50.886;6.468;2022-12-07T16:41:43;4.50;99.90
27306;DHT22;14792;50.886;6.468;2022-12-07T16:44:45;4.50;99.90
27306;DHT22;14792;50.886;6.468;2022-12-07T16:47:47;4.50;99.90
27306;DHT22;14792;50.886;6.468;2022-12-07T16:50:51;4.40;99.90
27306;DHT22;14792;50.886;6.468;2022-12-07T16:53:53;4.40;99.90
27306;DHT22;14792;50.886;6.468;2022-12-07T16:56:54;4.40;99.90
27306;DHT22;14792;50.886;6.468;2022-12-07T16:59:56;4.40;99.90
27306;DHT22;14792;50.886;6.468;2022-12-07T17:02:58;4.40;99.90
27306;DHT22;14792;50.886;6.468;2022-12-07T17:05:59;4.40;99.90
27306;DHT22;14792;50.886;6.468;2022-12-07T17:09:01;4.40;99.90
27306;DHT22;14792;50.886;6.468;2022-12-07T17:12:02;4.40;99.90
27306;DHT22;14792;50.886;6.468;2022-12-07T17:15:04;4.50;99.90
27306;DHT22;14792;50.886;6.468;2022-12-07T17:18:17;4.50;99.90
27306;DHT22;14792;50.886;6.468;2022-12-07T17:21:19;4.50;99.90
27306;DHT22;14792;50.886;6.468;2022-12-07T17:24:21;4.60;99.90
27306;DHT22;14792;50.886;6.468;2022-12-07T17:27:22;4.60;99.90
27306;DHT22;14792;50.886;6.468;2022-12-07T17:30:24;4.60;99.90
27306;DHT22;14792;50.886;6.468;2022-12-07T17:33:25;4.60;99.90
27306;DHT22;14792;50.886;6.468;2022-12-07T17:36:28;4.60;99.90
27306;DHT22;14792;50.886;6.468;2022-12-07T17:39:28;4.60;99.90
27306;DHT22;14792;50.886;6.468;2022-12-07T17:42:30;4.60;99.90
27306;DHT22;14792;50.886;6.468;2022-12-07T17:45:37;4.60;99.90
27306;DHT22;14792;50.886;6.468;2022-12-07T17:48:39;4.60;99.90
27306;DHT22;14792;50.886;6.468;2022-12-07T17:51:41;4.60;99.90
27306;DHT22;14792;50.886;6.468;2022-12-07T17:55:00;4.60;99.90
27306;DHT22;14792;50.886;6.468;2022-12-07T17:58:02;4.60;99.90
27306;DHT22;14792;50.886;6.468;2022-12-07T18:01:07;4.60;99.90
27306;DHT22;14792;50.886;6.468;2022-12-07T18:04:05;4.60;99.90
27306;DHT22;14792;50.886;6.468;2022-12-07T18:07:07;4.50;99.90
27306;DHT22;14792;50.886;6.468;2022-12-07T18:10:08;4.60;99.90
27306;DHT22;14792;50.886;6.468;2022-12-07T18:13:10;4.50;99.90
27306;DHT22;14792;50.886;6.468;2022-12-07T18:16:30;4.50;99.90
27306;DHT22;14792;50.886;6.468;2022-12-07T18:19:31;4.50;99.90
27306;DHT22;14792;50.886;6.468;2022-12-07T18:22:32;4.50;99.90
27306;DHT22;14792;50.886;6.468;2022-12-07T18:25:34;4.50;99.90
27306;DHT22;14792;50.886;6.468;2022-12-07T18:28:36;4.50;99.90
27306;DHT22;14792;50.886;6.468;2022-12-07T18:31:37;4.50;99.90
27306;DHT22;14792;50.886;6.468;2022-12-07T18:34:39;4.50;99.90
27306;DHT22;14792;50.886;6.468;2022-12-07T18:37:40;4.40;99.90
27306;DHT22;14792;50.886;6.468;2022-12-07T18:40:42;4.40;99.90
27306;DHT22;14792;50.886;6.468;2022-12-07T18:43:44;4.40;99.90
27306;DHT22;14792;50.886;6.468;2022-12-07T18:46:45;4.40;99.90
27306;DHT22;14792;50.886;6.468;2022-12-07T18:49:47;4.40;99.90
27306;DHT22;14792;50.886;6.468;2022-12-07T18:52:48;4.40;99.90
27306;DHT22;14792;50.886;6.468;2022-12-07T18:55:50;4.30;99.90
27306;DHT22;14792;50.886;6.468;2022-12-07T18:58:55;4.30;99.90
27306;DHT22;14792;50.886;6.468;2022-12-07T19:02:11;4.30;99.90
27306;DHT22;14792;50.886;6.468;2022-12-07T19:05:14;4.30;99.90
27306;DHT22;14792;50.886;6.468;2022-12-07T19:08:16;4.40;99.90
27306;DHT22;14792;50.886;6.468;2022-12-07T19:11:18;4.30;99.90
27306;DHT22;14792;50.886;6.468;2022-12-07T19:14:36;4.40;99.90
27306;DHT22;14792;50.886;6.468;2022-12-07T19:17:38;4.30;99.90
27306;DHT22;14792;50.886;6.468;2022-12-07T19:20:40;4.30;99.90
27306;DHT22;14792;50.886;6.468;2022-12-07T19:23:41;4.30;99.90
27306;DHT22;14792;50.886;6.468;2022-12-07T19:26:43;4.30;99.90
27306;DHT22;14792;50.886;6.468;2022-12-07T19:29:44;4.40;99.90
27306;DHT22;14792;50.886;6.468;2022-12-07T19:32:46;4.40;99.90
27306;DHT22;14792;50.886;6.468;2022-12-07T19:35:48;4.40;99.90
27306;DHT22;14792;50.886;6.468;2022-12-07T19:38:50;4.40;99.90
27306;DHT22;14792;50.886;6.468;2022-12-07T19:41:51;4.40;99.90
27306;DHT22;14792;50.886;6.468;2022-12-07T19:44:53;4.30;99.90
27306;DHT22;14792;50.886;6.468;2022-12-07T19:47:54;4.30;99.90
27306;DHT22;14792;50.886;6.468;2022-12-07T19:51:00;4.30;99.90
27306;DHT22;14792;50.886;6.468;2022-12-07T19:54:00;4.30;99.90
27306;DHT22;14792;50.886;6.468;2022-12-07T19:57:02;4.30;99.90
27306;DHT22;14792;50.886;6.468;2022-12-07T20:00:03;4.30;99.90
27306;DHT22;14792;50.886;6.468;2022-12-07T20:03:05;4.20;99.90
27306;DHT22;14792;50.886;6.468;2022-12-07T20:06:10;4.20;99.90
27306;DHT22;14792;50.886;6.468;2022-12-07T20:09:11;4.20;99.90
27306;DHT22;14792;50.886;6.468;2022-12-07T20:12:13;4.20;99.90
27306;DHT22;14792;50.886;6.468;2022-12-07T20:15:32;4.10;99.90
27306;DHT22;14792;50.886;6.468;2022-12-07T20:18:34;4.10;99.90
27306;DHT22;14792;50.886;6.468;2022-12-07T20:21:36;4.10;99.90
27306;DHT22;14792;50.886;6.468;2022-12-07T20:24:37;4.10;99.90
27306;DHT22;14792;50.886;6.468;2022-12-07T20:27:38;4.10;99.90
27306;DHT22;14792;50.886;6.468;2022-12-07T20:30:50;4.10;99.90
27306;DHT22;14792;50.886;6.468;2022-12-07T20:33:50;4.10;99.90
27306;DHT22;14792;50.886;6.468;2022-12-07T20:36:52;4.00;99.90
27306;DHT22;14792;50.886;6.468;2022-12-07T20:39:54;4.00;99.90
27306;DHT22;14792;50.886;6.468;2022-12-07T20:42:55;4.10;99.90
27306;DHT22;14792;50.886;6.468;2022-12-07T20:45:57;4.10;99.90
27306;DHT22;14792;50.886;6.468;2022-12-07T20:48:59;4.10;99.90